Time;durP1;ratioP1;P1;durP2;ratioP2;P2;SDS_P1;SDS_P2;PMS_P1;PMS_P2;Temp;Humidity;BMP_temperature;BMP_pressure;BME280_temperature;BME280_humidity;BME280_pressure;Samples;Min_cycle;Max_cycle;Signal;HPM_P1;HPM_P2
2022/06/05 00:02:00;;;;;;;5.10;2.92;;;20.60;91.70;;;;;;4164138;28;20487;-66
2022/06/05 00:04:12;;;;;;;3.00;2.45;;;20.70;91.70;;;;;;4168873;28;20040;-67
2022/06/05 00:06:32;;;;;;;2.63;2.40;;;20.70;91.80;;;;;;4173685;28;20171;-66
2022/06/05 00:08:56;;;;;;;3.30;2.65;;;20.60;91.70;;;;;;4171804;28;20032;-66
2022/06/05 00:10:58;;;;;;;2.95;2.50;;;20.60;91.80;;;;;;4165135;28;20037;-66
2022/06/05 00:13:20;;;;;;;5.10;2.83;;;20.60;91.80;;;;;;4173225;28;20719;-67
2022/06/05 00:15:21;;;;;;;2.97;2.30;;;20.60;91.90;;;;;;4172758;28;20034;-67
2022/06/05 00:17:22;;;;;;;3.35;2.30;;;20.60;91.90;;;;;;4167991;28;20412;-67
2022/06/05 00:19:23;;;;;;;3.75;2.70;;;20.70;91.90;;;;;;4171195;28;20129;-67
2022/06/05 00:21:24;;;;;;;4.05;3.05;;;20.60;91.90;;;;;;4154847;28;20049;-67
2022/06/05 00:23:25;;;;;;;3.80;2.80;;;20.60;92.00;;;;;;4177200;28;20041;-67
2022/06/05 00:25:36;;;;;;;3.50;2.85;;;20.50;92.10;;;;;;4169723;28;20041;-67
2022/06/05 00:28:10;;;;;;;3.95;2.53;;;20.50;92.10;;;;;;4166425;28;20545;-67
2022/06/05 00:30:21;;;;;;;4.28;3.05;;;20.60;92.20;;;;;;4163899;28;20495;-68
2022/06/05 00:32:29;;;;;;;3.70;2.50;;;20.50;92.40;;;;;;4165839;28;20037;-66
2022/06/05 00:34:30;;;;;;;4.68;2.85;;;20.40;92.60;;;;;;4161864;28;20128;-67
2022/06/05 00:36:55;;;;;;;4.03;2.65;;;20.30;92.80;;;;;;4160544;28;20060;-67
2022/06/05 00:38:56;;;;;;;5.35;2.85;;;20.30;92.90;;;;;;4171256;28;20389;-66
2022/06/05 00:41:05;;;;;;;4.72;3.13;;;20.20;92.80;;;;;;4172092;28;20037;-66
2022/06/05 00:43:12;;;;;;;3.05;2.40;;;20.10;92.90;;;;;;4167571;28;20041;-66
2022/06/05 00:45:14;;;;;;;4.07;2.63;;;20.20;92.90;;;;;;4172686;28;20503;-67
2022/06/05 00:47:19;;;;;;;4.82;3.10;;;20.10;92.90;;;;;;4171552;28;20425;-67
2022/06/05 00:49:22;;;;;;;6.32;3.10;;;20.10;93.00;;;;;;4164243;28;20156;-67
2022/06/05 00:51:23;;;;;;;4.15;3.10;;;20.10;93.10;;;;;;4175341;28;20043;-66
2022/06/05 00:53:23;;;;;;;3.30;2.70;;;20.10;93.10;;;;;;4168372;28;22462;-66
2022/06/05 00:55:27;;;;;;;2.90;2.40;;;20.10;93.10;;;;;;4163933;28;20052;-66
2022/06/05 00:57:30;;;;;;;3.97;2.75;;;20.10;93.10;;;;;;4170501;28;20124;-66
2022/06/05 00:59:31;;;;;;;3.78;2.85;;;20.20;93.10;;;;;;4173578;28;20037;-66
2022/06/05 01:01:32;;;;;;;4.13;2.53;;;20.20;93.30;;;;;;4172710;28;20051;-66
2022/06/05 01:03:33;;;;;;;3.85;2.22;;;20.30;93.00;;;;;;4171048;28;20061;-66
2022/06/05 01:05:34;;;;;;;3.38;2.58;;;20.30;93.00;;;;;;4168037;28;20431;-66
2022/06/05 01:07:34;;;;;;;8.25;2.90;;;20.20;92.90;;;;;;4167613;28;20030;-67
2022/06/05 01:09:36;;;;;;;2.95;2.65;;;20.30;93.00;;;;;;4176080;28;20033;-67
2022/06/05 01:11:40;;;;;;;3.37;2.57;;;20.20;93.10;;;;;;4172528;28;20044;-67
2022/06/05 01:14:04;;;;;;;3.78;2.90;;;20.20;93.10;;;;;;4169654;28;20063;-67
2022/06/05 01:16:42;;;;;;;5.05;3.05;;;20.20;93.10;;;;;;4165244;28;20395;-66
2022/06/05 01:19:17;;;;;;;3.20;2.70;;;20.20;93.20;;;;;;4167620;28;20030;-66
2022/06/05 01:21:45;;;;;;;6.78;3.30;;;20.20;93.30;;;;;;4167310;28;20091;-66
2022/06/05 01:24:16;;;;;;;5.65;2.88;;;20.00;93.50;;;;;;4170605;28;20513;-67
2022/06/05 01:26:37;;;;;;;3.83;2.92;;;20.00;93.70;;;;;;4170842;28;20481;-66
2022/06/05 01:28:44;;;;;;;4.30;2.90;;;19.90;93.80;;;;;;4154830;28;20033;-66
2022/06/05 01:30:51;;;;;;;3.65;3.00;;;19.90;93.80;;;;;;4170110;28;20029;-66
2022/06/05 01:32:58;;;;;;;8.00;3.20;;;19.90;93.90;;;;;;4167330;28;20029;-66
2022/06/05 01:35:26;;;;;;;3.38;3.08;;;19.80;94.20;;;;;;4172765;28;20083;-66
2022/06/05 01:37:47;;;;;;;4.10;3.50;;;19.70;94.50;;;;;;4172000;28;20045;-66
2022/06/05 01:39:53;;;;;;;5.07;3.60;;;19.50;94.80;;;;;;4165889;28;20044;-67
2022/06/05 01:41:59;;;;;;;4.53;3.60;;;19.40;95.10;;;;;;4172162;28;20045;-66
2022/06/05 01:44:05;;;;;;;5.75;3.72;;;19.40;95.20;;;;;;4169048;28;20057;-66
2022/06/05 01:46:34;;;;;;;3.75;2.80;;;19.20;95.60;;;;;;4166882;28;20044;-66
2022/06/05 01:48:47;;;;;;;4.93;3.30;;;19.20;95.70;;;;;;4176092;28;20044;-66
2022/06/05 01:51:06;;;;;;;3.95;3.30;;;19.20;95.80;;;;;;4164154;28;20041;-66
2022/06/05 01:53:21;;;;;;;5.68;3.65;;;19.00;96.00;;;;;;4170440;28;20036;-67
2022/06/05 01:55:30;;;;;;;5.72;3.88;;;19.00;96.20;;;;;;4167118;28;20033;-66
2022/06/05 01:57:33;;;;;;;6.88;4.25;;;18.90;96.30;;;;;;4166546;28;20049;-66
2022/06/05 01:59:43;;;;;;;6.45;3.85;;;18.90;96.40;;;;;;4173559;28;20033;-66
2022/06/05 02:01:51;;;;;;;5.10;3.95;;;18.90;96.40;;;;;;4170511;28;20040;-67
2022/06/05 02:04:18;;;;;;;6.25;4.07;;;18.90;96.30;;;;;;4172683;28;20487;-66
2022/06/05 02:06:25;;;;;;;5.28;3.63;;;19.00;96.30;;;;;;4170120;28;20041;-66
2022/06/05 02:08:34;;;;;;;6.28;4.30;;;18.90;96.70;;;;;;4170839;28;20458;-66
2022/06/05 02:10:44;;;;;;;6.97;4.38;;;18.80;96.60;;;;;;4166784;28;20040;-66
2022/06/05 02:12:45;;;;;;;5.93;4.65;;;18.70;97.00;;;;;;4167099;28;20033;-66
2022/06/05 02:14:46;;;;;;;4.70;4.05;;;18.70;97.30;;;;;;4172389;28;20056;-66
2022/06/05 02:16:46;;;;;;;5.63;4.30;;;18.60;97.40;;;;;;4167520;28;20167;-66
2022/06/05 02:18:47;;;;;;;5.47;4.00;;;18.60;97.70;;;;;;4168635;28;20037;-66
2022/06/05 02:20:48;;;;;;;5.82;4.35;;;18.50;97.90;;;;;;4170582;28;20040;-66
2022/06/05 02:22:51;;;;;;;5.03;4.10;;;18.50;98.20;;;;;;4168194;28;20052;-66
2022/06/05 02:24:53;;;;;;;5.18;3.75;;;18.40;98.40;;;;;;4173422;28;20044;-66
2022/06/05 02:26:58;;;;;;;6.60;4.30;;;18.40;98.70;;;;;;4164856;28;20037;-66
2022/06/05 02:29:07;;;;;;;5.97;4.40;;;18.30;98.80;;;;;;4177965;28;20056;-66
2022/06/05 02:31:30;;;;;;;5.85;4.38;;;18.30;98.90;;;;;;4165433;28;20049;-66
2022/06/05 02:33:59;;;;;;;7.35;4.30;;;18.20;99.10;;;;;;4167527;28;20072;-66
2022/06/05 02:36:24;;;;;;;7.03;4.55;;;18.20;99.30;;;;;;4160450;28;20054;-66
2022/06/05 02:38:39;;;;;;;7.75;4.78;;;18.30;99.50;;;;;;4166336;28;20060;-66
2022/06/05 02:40:40;;;;;;;5.00;4.22;;;18.20;99.60;;;;;;4170846;28;20037;-66
2022/06/05 02:43:21;;;;;;;5.97;4.60;;;18.20;99.70;;;;;;4172526;28;20507;-66
2022/06/05 02:45:45;;;;;;;4.82;4.15;;;18.20;99.90;;;;;;4166110;28;20091;-66
2022/06/05 02:47:51;;;;;;;5.25;4.75;;;18.20;99.90;;;;;;4172201;28;20537;-66
2022/06/05 02:50:10;;;;;;;7.68;4.60;;;18.20;99.90;;;;;;4167144;28;20032;-66
2022/06/05 02:52:11;;;;;;;5.13;4.45;;;18.10;99.90;;;;;;4169904;28;20036;-66
2022/06/05 02:54:24;;;;;;;6.53;4.55;;;18.20;99.90;;;;;;4170061;28;20045;-67
2022/06/05 02:56:28;;;;;;;6.50;4.82;;;18.10;99.90;;;;;;4165951;28;20393;-66
2022/06/05 02:58:29;;;;;;;5.85;4.40;;;18.10;99.90;;;;;;4171321;28;20129;-66
2022/06/05 03:00:32;;;;;;;6.95;4.10;;;18.10;99.90;;;;;;4171002;28;20033;-66
2022/06/05 03:05:12;;;;;;;5.70;4.32;;;18.20;99.90;;;;;;4107572;28;20035;-66
2022/06/05 03:07:12;;;;;;;6.22;4.38;;;18.30;99.90;;;;;;4110852;28;20400;-67
2022/06/05 03:09:13;;;;;;;5.65;3.95;;;18.30;99.90;;;;;;4110652;28;20039;-66
2022/06/05 03:11:14;;;;;;;7.07;5.00;;;18.40;99.90;;;;;;4166036;28;20043;-67
2022/06/05 03:13:15;;;;;;;6.85;4.30;;;18.40;99.90;;;;;;4168828;28;20038;-66
2022/06/05 03:15:16;;;;;;;7.20;4.97;;;18.50;99.90;;;;;;4165914;28;20037;-66
2022/06/05 03:17:17;;;;;;;6.30;4.50;;;18.50;99.90;;;;;;4169449;28;20053;-66
2022/06/05 03:19:18;;;;;;;7.03;4.88;;;18.60;99.90;;;;;;4164461;28;20037;-66
2022/06/05 03:21:18;;;;;;;9.20;5.20;;;18.60;99.90;;;;;;4170706;28;20048;-66
2022/06/05 03:23:19;;;;;;;9.38;5.00;;;18.50;99.90;;;;;;4168861;28;20036;-66
2022/06/05 03:25:22;;;;;;;9.25;5.55;;;18.50;99.90;;;;;;4174017;28;20507;-66
2022/06/05 03:27:23;;;;;;;7.82;4.50;;;18.50;99.90;;;;;;4171426;28;20567;-66
2022/06/05 03:29:24;;;;;;;6.68;4.70;;;18.50;99.90;;;;;;4168280;28;20041;-66
2022/06/05 03:31:25;;;;;;;6.07;4.78;;;18.50;99.90;;;;;;4166037;28;20618;-66
2022/06/05 03:33:25;;;;;;;9.25;5.40;;;18.60;99.90;;;;;;4168280;28;20046;-66
2022/06/05 03:35:26;;;;;;;9.38;5.60;;;18.50;99.90;;;;;;4170876;28;20072;-66
2022/06/05 03:37:27;;;;;;;5.50;4.60;;;18.40;99.90;;;;;;4175676;28;20496;-66
2022/06/05 03:39:27;;;;;;;6.03;4.65;;;18.50;99.90;;;;;;4170146;28;20037;-66
2022/06/05 03:41:28;;;;;;;12.68;5.32;;;18.50;99.90;;;;;;4166252;28;20037;-66
2022/06/05 03:43:28;;;;;;;7.40;4.88;;;18.50;99.90;;;;;;4173143;28;20033;-66
2022/06/05 03:45:29;;;;;;;7.30;4.75;;;18.60;99.90;;;;;;4170277;28;20080;-66
2022/06/05 03:47:30;;;;;;;7.53;4.65;;;18.60;99.90;;;;;;4169728;28;20459;-66
2022/06/05 03:49:34;;;;;;;6.03;4.72;;;18.60;99.90;;;;;;4149295;28;20168;-66
2022/06/05 03:51:35;;;;;;;6.55;4.50;;;18.60;99.90;;;;;;4162368;28;20531;-66
2022/06/05 03:53:36;;;;;;;7.20;4.85;;;18.60;99.90;;;;;;4171112;28;20046;-66
2022/06/05 03:58:33;;;;;;;7.68;5.00;;;18.60;99.90;;;;;;4163824;28;20046;-66
2022/06/05 04:00:34;;;;;;;8.55;5.13;;;18.60;99.90;;;;;;4174681;28;20175;-69
2022/06/05 04:02:35;;;;;;;7.80;4.72;;;18.50;99.90;;;;;;4173356;28;20029;-69
2022/06/05 04:04:36;;;;;;;7.20;4.65;;;18.50;99.90;;;;;;4171807;28;20473;-71
2022/06/05 04:06:37;;;;;;;4.75;3.97;;;18.50;99.90;;;;;;4165435;28;20053;-69
2022/06/05 04:08:38;;;;;;;7.45;4.70;;;18.60;99.90;;;;;;4171727;28;20088;-69
2022/06/05 04:10:39;;;;;;;8.02;4.97;;;18.60;99.90;;;;;;4169283;28;21783;-69
2022/06/05 04:12:39;;;;;;;7.07;5.10;;;18.50;99.90;;;;;;4171822;28;20037;-69
2022/06/05 04:14:40;;;;;;;8.73;4.75;;;18.50;99.90;;;;;;4172380;28;20379;-69
2022/06/05 04:16:41;;;;;;;7.72;4.95;;;18.50;99.90;;;;;;4165604;28;20072;-69
2022/06/05 04:18:42;;;;;;;7.63;5.50;;;18.40;99.90;;;;;;4149679;28;20034;-69
2022/06/05 04:20:43;;;;;;;9.88;5.55;;;18.40;99.90;;;;;;4172793;28;20088;-70
2022/06/05 04:22:43;;;;;;;7.30;5.50;;;18.30;99.90;;;;;;4174285;28;20120;-69
2022/06/05 04:24:44;;;;;;;10.35;5.85;;;18.30;99.90;;;;;;4171131;28;20033;-69
2022/06/05 04:26:45;;;;;;;9.90;5.93;;;18.30;99.90;;;;;;4171965;28;20041;-69
2022/06/05 04:28:45;;;;;;;7.40;4.88;;;18.20;99.90;;;;;;4151036;28;20037;-69
2022/06/05 04:30:46;;;;;;;11.23;6.35;;;18.20;99.90;;;;;;4166437;28;20060;-69
2022/06/05 04:32:47;;;;;;;6.82;5.10;;;18.10;99.90;;;;;;4170508;28;20037;-69
2022/06/05 04:34:50;;;;;;;6.03;5.07;;;18.20;99.90;;;;;;4174971;28;20049;-69
2022/06/05 04:36:51;;;;;;;8.55;5.60;;;18.20;99.90;;;;;;4166355;28;20046;-69
2022/06/05 04:38:53;;;;;;;7.03;5.07;;;18.10;99.90;;;;;;4166047;28;20044;-69
2022/06/05 04:40:53;;;;;;;7.40;5.32;;;18.10;99.90;;;;;;4170959;28;20033;-69
2022/06/05 04:42:54;;;;;;;8.90;5.60;;;18.10;99.90;;;;;;4177120;28;20369;-69
2022/06/05 04:44:54;;;;;;;7.90;5.40;;;18.10;99.90;;;;;;4172976;28;20033;-69
2022/06/05 04:46:55;;;;;;;5.80;4.85;;;18.10;99.90;;;;;;4172956;28;20036;-69
2022/06/05 04:48:56;;;;;;;6.97;5.53;;;18.20;99.90;;;;;;4176105;28;20037;-69
2022/06/05 04:50:57;;;;;;;8.88;5.25;;;18.20;99.90;;;;;;4172285;28;20566;-69
2022/06/05 04:52:57;;;;;;;6.88;5.38;;;18.30;99.90;;;;;;4172154;28;20052;-69
2022/06/05 04:54:58;;;;;;;7.68;5.53;;;18.20;99.90;;;;;;4151422;28;20419;-69
2022/06/05 04:56:59;;;;;;;10.50;4.95;;;18.10;99.90;;;;;;4172184;28;20153;-69
2022/06/05 04:59:01;;;;;;;7.05;4.95;;;18.20;99.90;;;;;;4175795;28;20039;-69
2022/06/05 05:01:08;;;;;;;5.68;4.78;;;18.20;99.90;;;;;;4153015;28;20100;-69
2022/06/05 05:03:09;;;;;;;6.63;4.78;;;18.20;99.90;;;;;;4168351;28;20045;-69
2022/06/05 05:05:10;;;;;;;7.60;5.00;;;18.30;99.90;;;;;;4166426;28;20395;-69
2022/06/05 05:07:10;;;;;;;5.13;4.63;;;18.40;99.90;;;;;;4170964;28;20037;-69
2022/06/05 05:09:11;;;;;;;6.03;4.63;;;18.40;99.90;;;;;;4167515;28;20072;-69
2022/06/05 05:11:12;;;;;;;7.53;5.20;;;18.30;99.90;;;;;;4199929;23;20033;-65
2022/06/05 05:15:36;;;;;;;6.15;4.75;;;18.40;99.90;;;;;;3470481;23;20126;-66
2022/06/05 05:17:37;;;;;;;6.35;4.50;;;18.50;99.90;;;;;;4097663;28;20059;-66
2022/06/05 05:19:38;;;;;;;5.78;4.68;;;18.50;99.90;;;;;;4094129;28;20039;-66
2022/06/05 05:21:39;;;;;;;6.30;5.03;;;18.50;99.90;;;;;;4093051;28;20047;-66
2022/06/05 05:23:40;;;;;;;7.28;4.88;;;18.50;99.90;;;;;;4091508;28;20510;-66
2022/06/05 05:25:40;;;;;;;5.70;4.50;;;18.60;99.90;;;;;;4097561;28;20030;-66
2022/06/05 05:27:41;;;;;;;5.82;4.32;;;18.60;99.90;;;;;;4097989;28;20495;-66
2022/06/05 05:29:42;;;;;;;5.53;4.57;;;18.60;99.90;;;;;;4098298;28;20035;-66
2022/06/05 05:31:44;;;;;;;6.97;4.80;;;18.60;99.90;;;;;;4098957;28;20126;-66
2022/06/05 05:33:48;;;;;;;7.10;4.63;;;18.60;99.90;;;;;;4100256;28;20035;-66
2022/06/05 05:35:49;;;;;;;7.45;4.57;;;18.60;99.90;;;;;;4094469;28;20039;-66
2022/06/05 05:37:50;;;;;;;8.05;5.10;;;18.70;99.90;;;;;;4093300;28;20082;-66
2022/06/05 05:42:11;;;;;;;6.97;4.57;;;18.60;99.90;;;;;;4094392;28;20035;-66
2022/06/05 05:44:13;;;;;;;6.70;5.30;;;18.70;99.90;;;;;;4092930;28;20024;-66
2022/06/05 05:46:15;;;;;;;4.82;4.30;;;18.60;99.90;;;;;;4109370;28;20074;-66
2022/06/05 05:48:15;;;;;;;5.45;3.90;;;18.70;99.90;;;;;;4094597;28;20494;-66
2022/06/05 05:50:16;;;;;;;9.23;5.10;;;18.80;99.90;;;;;;4093101;28;20031;-66
2022/06/05 05:52:17;;;;;;;5.93;4.50;;;18.80;99.90;;;;;;4157340;23;20082;-69
2022/06/05 05:54:18;;;;;;;5.25;4.13;;;18.70;99.90;;;;;;4060660;29;20040;-70
2022/06/05 05:56:18;;;;;;;7.35;4.72;;;18.80;99.90;;;;;;4060380;29;20127;-70
2022/06/05 05:58:19;;;;;;;6.82;3.95;;;18.90;99.90;;;;;;4063070;29;20043;-70
2022/06/05 06:00:20;;;;;;;6.55;4.47;;;18.90;99.90;;;;;;4064388;29;20036;-70
2022/06/05 06:02:22;;;;;;;5.53;4.35;;;18.90;99.90;;;;;;4062743;29;20059;-70
2022/06/05 06:04:23;;;;;;;6.50;3.63;;;18.90;99.90;;;;;;4062512;29;20051;-70
2022/06/05 06:06:29;;;;;;;6.90;4.30;;;19.00;99.90;;;;;;4064206;29;20472;-70
2022/06/05 06:08:30;;;;;;;6.20;4.55;;;19.00;99.90;;;;;;4064951;29;20127;-70
2022/06/05 06:10:31;;;;;;;4.55;4.13;;;18.90;99.90;;;;;;4060617;29;20484;-70
2022/06/05 06:12:31;;;;;;;5.15;4.57;;;18.90;99.90;;;;;;4064104;29;20123;-70
2022/06/05 06:14:33;;;;;;;5.43;4.05;;;18.90;99.90;;;;;;4063408;29;20111;-70
2022/06/05 06:16:33;;;;;;;6.30;3.85;;;18.90;99.90;;;;;;4065727;29;20056;-71
2022/06/05 06:18:34;;;;;;;4.30;3.78;;;18.90;99.90;;;;;;4063885;29;20399;-70
2022/06/05 06:20:35;;;;;;;4.07;3.63;;;19.00;99.90;;;;;;4063654;29;20044;-69
2022/06/05 06:22:35;;;;;;;4.70;4.00;;;19.00;99.90;;;;;;4063067;29;20048;-70
2022/06/05 06:24:36;;;;;;;5.10;4.30;;;18.90;99.90;;;;;;4062526;29;20127;-70
2022/06/05 06:26:37;;;;;;;4.47;3.80;;;18.90;99.90;;;;;;4064105;29;20475;-70
2022/06/05 06:28:38;;;;;;;5.53;3.83;;;19.00;99.90;;;;;;4062442;29;20531;-70
2022/06/05 06:30:40;;;;;;;6.10;4.32;;;19.10;99.90;;;;;;4064835;29;20040;-70
2022/06/05 06:32:41;;;;;;;5.30;3.85;;;19.10;99.90;;;;;;4064449;29;20048;-70
2022/06/05 06:34:41;;;;;;;8.05;4.85;;;19.10;99.90;;;;;;4062044;29;20102;-70
2022/06/05 06:36:42;;;;;;;4.95;3.97;;;19.00;99.90;;;;;;4064028;29;20056;-70
2022/06/05 06:38:43;;;;;;;7.22;3.75;;;19.10;99.90;;;;;;4065976;29;20043;-70
2022/06/05 06:40:43;;;;;;;6.15;4.70;;;19.10;99.90;;;;;;4063682;29;20428;-70
2022/06/05 06:42:44;;;;;;;6.43;5.45;;;19.10;99.90;;;;;;4062436;29;20123;-70
2022/06/05 06:44:45;;;;;;;6.97;4.78;;;19.10;99.90;;;;;;4060937;29;20498;-70
2022/06/05 06:46:45;;;;;;;7.15;4.43;;;19.20;99.90;;;;;;4060859;29;20072;-72
2022/06/05 06:48:47;;;;;;;7.88;4.93;;;19.20;99.90;;;;;;4062415;29;20043;-69
2022/06/05 06:50:47;;;;;;;5.72;4.78;;;19.10;99.90;;;;;;4061195;29;20055;-70
2022/06/05 06:52:48;;;;;;;6.63;4.13;;;19.20;99.90;;;;;;4060671;29;20151;-70
2022/06/05 06:54:50;;;;;;;6.47;4.22;;;19.30;99.90;;;;;;4059753;29;20048;-70
2022/06/05 06:56:50;;;;;;;5.53;4.53;;;19.30;99.90;;;;;;4061206;29;20083;-70
2022/06/05 06:58:52;;;;;;;7.15;4.65;;;19.40;99.90;;;;;;4062733;29;20040;-70
2022/06/05 07:00:52;;;;;;;6.72;5.18;;;19.30;99.90;;;;;;4074813;29;20418;-70
2022/06/05 07:02:53;;;;;;;7.70;4.80;;;19.40;99.90;;;;;;4078585;29;20035;-70
2022/06/05 07:04:54;;;;;;;5.13;4.45;;;19.40;99.90;;;;;;4081681;28;20426;-70
2022/06/05 07:06:54;;;;;;;6.97;4.78;;;19.50;99.90;;;;;;4075531;29;20063;-70
2022/06/05 07:08:55;;;;;;;6.93;4.20;;;19.50;99.90;;;;;;4081058;28;20035;-70
2022/06/05 07:10:56;;;;;;;4.70;3.95;;;19.50;99.90;;;;;;4083861;28;20118;-70
2022/06/05 07:12:56;;;;;;;5.55;4.10;;;19.60;99.90;;;;;;4077812;28;20438;-71
2022/06/05 07:14:57;;;;;;;7.32;4.97;;;19.70;99.90;;;;;;4076100;28;20054;-71
2022/06/05 07:16:58;;;;;;;8.93;4.90;;;19.70;99.90;;;;;;4080556;28;20040;-69
2022/06/05 07:18:58;;;;;;;7.20;5.00;;;19.70;99.90;;;;;;4081648;28;20450;-69
2022/06/05 07:21:09;;;;;;;8.80;4.97;;;19.70;99.90;;;;;;4078236;29;20032;-70
2022/06/05 07:23:12;;;;;;;10.02;5.20;;;19.70;99.90;;;;;;4078105;29;20035;-70
2022/06/05 07:25:13;;;;;;;6.18;4.38;;;19.80;99.90;;;;;;4077741;28;20047;-70
2022/06/05 07:27:14;;;;;;;6.57;4.63;;;19.80;99.90;;;;;;4075015;28;20447;-70
2022/06/05 07:29:15;;;;;;;5.53;4.45;;;19.90;99.90;;;;;;4078634;29;20430;-71
2022/06/05 07:31:17;;;;;;;5.15;4.55;;;19.90;99.90;;;;;;4084232;28;20086;-69
2022/06/05 07:33:17;;;;;;;6.47;4.78;;;20.00;99.90;;;;;;4079225;28;20047;-70
2022/06/05 07:35:19;;;;;;;7.20;4.75;;;20.20;99.90;;;;;;4074670;29;20407;-71
2022/06/05 07:37:19;;;;;;;7.22;4.95;;;20.20;99.90;;;;;;4082862;28;20559;-70
2022/06/05 07:39:20;;;;;;;6.25;4.20;;;20.30;99.90;;;;;;4088652;28;20036;-70
2022/06/05 07:41:27;;;;;;;7.32;5.35;;;20.40;99.90;;;;;;4078236;29;20487;-70
2022/06/05 07:43:28;;;;;;;6.03;3.97;;;20.50;99.90;;;;;;4074833;28;20055;-70
2022/06/05 07:45:28;;;;;;;10.68;4.53;;;20.50;99.90;;;;;;4073891;28;20052;-71
2022/06/05 07:47:29;;;;;;;7.80;4.53;;;20.60;99.90;;;;;;4077336;29;20047;-71
2022/06/05 07:49:29;;;;;;;7.13;4.90;;;20.60;99.90;;;;;;4079430;28;20115;-71
2022/06/05 07:56:09;;;;;;;5.90;4.15;;;20.70;99.90;;;;;;4077549;29;20513;-70
2022/06/05 07:58:09;;;;;;;7.78;4.60;;;20.80;99.90;;;;;;4078888;29;20119;-71
2022/06/05 08:00:11;;;;;;;6.72;4.30;;;20.90;99.90;;;;;;4082162;28;20674;-72
2022/06/05 08:02:15;;;;;;;8.88;4.53;;;20.90;99.70;;;;;;4079891;28;20471;-70
2022/06/05 08:04:15;;;;;;;5.72;4.18;;;21.00;99.90;;;;;;4084752;28;20391;-69
2022/06/05 08:06:16;;;;;;;6.20;4.30;;;21.10;99.80;;;;;;4080048;28;20036;-69
2022/06/05 08:08:16;;;;;;;5.50;4.07;;;21.10;98.90;;;;;;4081678;28;20502;-69
2022/06/05 08:10:17;;;;;;;7.35;4.57;;;21.10;98.50;;;;;;4081618;28;20040;-69
2022/06/05 08:12:20;;;;;;;5.75;4.60;;;21.10;98.60;;;;;;4081007;28;20060;-70
2022/06/05 08:14:21;;;;;;;10.25;4.78;;;21.10;98.40;;;;;;4078600;28;20117;-70
2022/06/05 08:16:22;;;;;;;5.45;4.30;;;21.10;98.70;;;;;;4076609;29;20121;-70
2022/06/05 08:18:22;;;;;;;7.13;4.15;;;21.20;98.60;;;;;;4076173;28;20036;-70
2022/06/05 08:20:23;;;;;;;4.88;3.70;;;21.10;98.70;;;;;;4077068;28;20036;-70
2022/06/05 08:22:25;;;;;;;7.13;3.78;;;21.20;98.80;;;;;;4082265;28;20099;-71
2022/06/05 08:24:26;;;;;;;6.22;4.30;;;21.30;98.60;;;;;;4078778;28;20044;-71
2022/06/05 08:26:26;;;;;;;5.68;3.90;;;21.30;98.40;;;;;;4080146;28;20044;-69
2022/06/05 08:28:27;;;;;;;7.32;4.10;;;21.30;98.40;;;;;;4078804;29;20465;-70
2022/06/05 08:30:28;;;;;;;5.55;4.20;;;21.40;98.40;;;;;;4079985;28;20039;-70
2022/06/05 08:32:28;;;;;;;8.82;4.20;;;21.40;98.40;;;;;;4077190;28;20051;-70
2022/06/05 08:34:29;;;;;;;6.07;3.78;;;21.50;98.50;;;;;;4081392;28;20091;-71
2022/06/05 08:36:31;;;;;;;4.95;3.72;;;21.60;98.20;;;;;;4076152;29;20047;-71
2022/06/05 08:41:32;;;;;;;6.43;3.58;;;21.80;98.60;;;;;;4075664;29;20447;-71
2022/06/05 08:43:49;;;;;;;6.13;4.32;;;21.90;98.60;;;;;;4059469;29;20066;-71
2022/06/05 08:45:57;;;;;;;9.98;4.72;;;21.90;98.10;;;;;;4078387;28;20133;-70
2022/06/05 08:48:02;;;;;;;5.00;3.45;;;22.00;98.00;;;;;;4079135;28;20031;-69
2022/06/05 08:50:19;;;;;;;5.03;3.78;;;22.00;98.30;;;;;;4063933;29;20028;-70
2022/06/05 08:52:32;;;;;;;6.60;4.47;;;22.10;98.00;;;;;;4074431;29;20566;-70
2022/06/05 08:54:38;;;;;;;;;;;22.10;97.60;;;;;;4074460;29;20043;-70
2022/06/05 08:56:43;;;;;;;4.03;3.60;;;22.10;97.50;;;;;;4077206;29;19919;-70
2022/06/05 08:58:51;;;;;;;6.13;4.10;;;22.10;97.50;;;;;;4076712;29;20821;-69
2022/06/05 09:01:07;;;;;;;4.70;3.90;;;22.20;97.50;;;;;;4062141;29;20195;-70
2022/06/05 09:03:23;;;;;;;4.57;3.83;;;22.20;97.60;;;;;;4079462;28;20055;-70
2022/06/05 09:05:30;;;;;;;5.55;3.60;;;22.20;97.80;;;;;;4081327;28;20474;-71
2022/06/05 09:07:40;;;;;;;3.85;3.20;;;22.30;97.70;;;;;;4080234;29;20138;-71
2022/06/05 09:09:47;;;;;;;5.47;4.07;;;22.40;98.00;;;;;;4076009;29;20036;-71
2022/06/05 09:12:09;;;;;;;4.50;3.33;;;22.40;97.90;;;;;;4079160;28;20047;-71
2022/06/05 09:14:25;;;;;;;4.50;3.67;;;22.50;97.80;;;;;;4079330;29;20040;-69
2022/06/05 09:16:29;;;;;;;6.47;3.80;;;22.50;97.70;;;;;;4081418;29;20105;-69
2022/06/05 09:18:37;;;;;;;5.57;4.22;;;22.50;97.60;;;;;;4081208;28;20174;-70
2022/06/05 09:20:51;;;;;;;5.70;4.43;;;22.50;97.70;;;;;;4079359;28;20043;-69
2022/06/05 09:22:59;;;;;;;6.63;4.45;;;22.50;97.70;;;;;;4071838;29;20666;-70
2022/06/05 09:25:08;;;;;;;7.75;3.90;;;22.60;97.70;;;;;;4081110;28;20526;-71
2022/06/05 09:27:54;;;;;;;5.47;3.85;;;22.60;97.70;;;;;;4080038;29;20043;-70
2022/06/05 09:30:19;;;;;;;5.20;3.90;;;22.70;98.20;;;;;;4076199;28;20028;-72
2022/06/05 09:32:25;;;;;;;6.20;4.43;;;22.70;98.20;;;;;;4079887;29;20075;-69
2022/06/05 09:34:34;;;;;;;6.10;3.80;;;22.80;98.40;;;;;;4077360;28;20039;-71
2022/06/05 09:36:35;;;;;;;5.75;4.05;;;22.80;98.30;;;;;;4081013;29;20059;-71
2022/06/05 09:38:45;;;;;;;6.50;4.10;;;22.90;98.60;;;;;;4079633;29;20039;-71
2022/06/05 09:41:15;;;;;;;6.32;4.50;;;22.90;98.70;;;;;;4082405;28;20048;-72
2022/06/05 09:43:34;;;;;;;8.05;4.57;;;22.80;98.30;;;;;;4079487;29;20048;-70
2022/06/05 09:45:42;;;;;;;5.30;4.40;;;22.90;98.60;;;;;;4077996;29;20378;-71
2022/06/05 09:48:06;;;;;;;6.40;4.22;;;22.90;98.70;;;;;;4085210;29;20039;-70
2022/06/05 09:50:25;;;;;;;5.57;3.95;;;22.90;98.70;;;;;;4065668;28;20027;-71
2022/06/05 09:52:29;;;;;;;6.78;4.05;;;23.00;98.70;;;;;;4082154;29;20052;-70
2022/06/05 09:54:32;;;;;;;5.45;4.40;;;22.90;99.20;;;;;;4080848;29;20042;-71
2022/06/05 10:00:02;;;;;;;6.18;4.32;;;22.90;99.30;;;;;;4078714;28;20039;-70
2022/06/05 10:02:06;;;;;;;5.18;3.75;;;22.80;99.40;;;;;;4075433;28;20028;-70
2022/06/05 10:04:06;;;;;;;5.28;3.40;;;22.70;99.70;;;;;;4080696;28;20472;-71
2022/06/05 10:06:17;;;;;;;5.43;3.80;;;22.70;99.80;;;;;;4081922;28;20098;-69
2022/06/05 10:08:24;;;;;;;4.57;4.00;;;22.70;99.90;;;;;;4079875;29;20099;-69
2022/06/05 10:10:32;;;;;;;3.88;3.35;;;22.70;99.90;;;;;;4081659;29;20123;-69
2022/06/05 10:12:42;;;;;;;3.50;3.20;;;22.70;99.90;;;;;;4078544;28;20475;-71
2022/06/05 10:15:20;;;;;;;4.43;3.25;;;22.70;99.90;;;;;;4082512;28;20044;-69
2022/06/05 10:17:38;;;;;;;6.00;3.35;;;22.70;99.90;;;;;;4079211;28;20051;-69
2022/06/05 10:20:05;;;;;;;5.85;4.13;;;22.60;99.90;;;;;;4076840;29;20403;-70
2022/06/05 10:22:23;;;;;;;4.97;4.47;;;22.50;99.90;;;;;;4078490;28;20479;-70
2022/06/05 10:24:30;;;;;;;7.80;4.28;;;22.20;99.90;;;;;;4096838;28;20031;-69
2022/06/05 10:26:37;;;;;;;5.78;4.55;;;22.00;99.90;;;;;;4079316;29;20066;-70
2022/06/05 10:28:40;;;;;;;6.30;4.63;;;21.60;99.90;;;;;;4078582;29;20050;-68
2022/06/05 10:31:04;;;;;;;5.22;4.40;;;21.30;99.90;;;;;;4082330;28;20444;-68
2022/06/05 10:33:20;;;;;;;6.38;5.20;;;21.10;99.90;;;;;;4077166;28;20027;-68
2022/06/05 10:35:49;;;;;;;10.48;5.63;;;20.90;99.90;;;;;;4079340;29;20042;-71
2022/06/05 10:38:25;;;;;;;9.43;5.68;;;20.70;99.90;;;;;;4072864;29;20051;-70
2022/06/05 10:40:39;;;;;;;13.52;5.10;;;20.50;99.90;;;;;;4051758;29;20411;-68
2022/06/05 10:43:01;;;;;;;9.05;5.28;;;20.40;99.90;;;;;;4078172;28;20439;-68
2022/06/05 10:45:28;;;;;;;6.85;5.20;;;20.40;99.90;;;;;;4076803;28;20114;-70
2022/06/05 10:47:49;;;;;;;6.20;5.15;;;20.40;99.90;;;;;;4076900;29;20054;-69
2022/06/05 10:50:07;;;;;;;6.85;5.50;;;20.40;99.90;;;;;;4076310;29;20074;-68
2022/06/05 10:52:22;;;;;;;7.25;5.25;;;20.20;99.90;;;;;;4075670;29;20036;-69
2022/06/05 10:54:45;;;;;;;6.20;5.60;;;20.20;99.90;;;;;;4078755;29;20055;-68
2022/06/05 10:56:53;;;;;;;7.00;6.15;;;20.20;99.90;;;;;;4076475;29;20064;-70
2022/06/05 10:58:58;;;;;;;8.60;6.10;;;20.20;99.90;;;;;;4077939;29;20040;-68
2022/06/05 11:01:05;;;;;;;7.60;6.03;;;20.10;99.90;;;;;;4063728;29;20475;-68
2022/06/05 11:03:33;;;;;;;8.05;6.50;;;20.10;99.90;;;;;;4066050;29;20036;-68
2022/06/05 11:05:56;;;;;;;10.05;7.05;;;20.10;99.90;;;;;;4075550;28;20415;-69
2022/06/05 11:08:32;;;;;;;11.77;6.70;;;20.10;99.90;;;;;;4077981;29;20043;-69
2022/06/05 11:13:42;;;;;;;7.47;5.50;;;20.00;99.90;;;;;;4077197;29;20046;-68
2022/06/05 11:15:47;;;;;;;6.55;5.00;;;19.80;99.90;;;;;;4082317;28;20439;-68
2022/06/05 11:18:13;;;;;;;6.53;5.45;;;19.90;99.90;;;;;;4078649;29;20135;-68
2022/06/05 11:20:19;;;;;;;7.68;5.85;;;20.00;99.90;;;;;;4078601;29;20123;-69
2022/06/05 11:22:21;;;;;;;8.05;6.72;;;20.10;99.90;;;;;;4088780;28;20431;-69